sensor_id;sensor_type;location;lat;lon;timestamp;pressure;altitude;pressure_sealevel;temperature;humidity
46464;BME280;32161;48.148;-1.554;2022-10-15T00:01:15;100201.31;;;17.47;100.00
46464;BME280;32161;48.148;-1.554;2022-10-15T00:03:44;100207.25;;;17.59;100.00
46464;BME280;32161;48.148;-1.554;2022-10-15T00:06:15;100199.06;;;17.54;100.00
46464;BME280;32161;48.148;-1.554;2022-10-15T00:08:43;100197.53;;;17.67;100.00
46464;BME280;32161;48.148;-1.554;2022-10-15T00:11:15;100205.53;;;17.63;100.00
46464;BME280;32161;48.148;-1.554;2022-10-15T00:13:43;100187.28;;;17.77;100.00
46464;BME280;32161;48.148;-1.554;2022-10-15T00:16:13;100196.66;;;17.76;100.00
46464;BME280;32161;48.148;-1.554;2022-10-15T00:18:41;100186.53;;;17.67;100.00
46464;BME280;32161;48.148;-1.554;2022-10-15T00:21:12;100194.56;;;17.63;100.00
46464;BME280;32161;48.148;-1.554;2022-10-15T00:23:40;100190.75;;;17.59;100.00
46464;BME280;32161;48.148;-1.554;2022-10-15T00:26:12;100186.31;;;17.63;100.00
46464;BME280;32161;48.148;-1.554;2022-10-15T00:28:41;100187.59;;;17.76;100.00
46464;BME280;32161;48.148;-1.554;2022-10-15T00:31:11;100182.91;;;17.71;100.00
46464;BME280;32161;48.148;-1.554;2022-10-15T00:33:39;100174.59;;;17.81;100.00
46464;BME280;32161;48.148;-1.554;2022-10-15T00:36:11;100169.97;;;17.77;100.00
46464;BME280;32161;48.148;-1.554;2022-10-15T00:38:39;100164.78;;;17.70;100.00
46464;BME280;32161;48.148;-1.554;2022-10-15T00:41:09;100164.97;;;17.55;100.00
46464;BME280;32161;48.148;-1.554;2022-10-15T00:43:42;100156.63;;;17.65;100.00
46464;BME280;32161;48.148;-1.554;2022-10-15T00:46:22;100166.00;;;17.88;100.00
46464;BME280;32161;48.148;-1.554;2022-10-15T00:48:55;100160.34;;;17.74;100.00
46464;BME280;32161;48.148;-1.554;2022-10-15T00:51:32;100155.13;;;17.78;100.00
46464;BME280;32161;48.148;-1.554;2022-10-15T00:54:02;100147.25;;;17.66;100.00
46464;BME280;32161;48.148;-1.554;2022-10-15T00:56:31;100140.94;;;17.66;100.00
46464;BME280;32161;48.148;-1.554;2022-10-15T00:59:01;100144.16;;;17.73;100.00
46464;BME280;32161;48.148;-1.554;2022-10-15T01:01:31;100132.84;;;17.74;100.00
46464;BME280;32161;48.148;-1.554;2022-10-15T01:04:01;100130.69;;;17.71;100.00
46464;BME280;32161;48.148;-1.554;2022-10-15T01:06:29;100127.44;;;17.69;100.00
46464;BME280;32161;48.148;-1.554;2022-10-15T01:08:56;100120.00;;;17.70;100.00
46464;BME280;32161;48.148;-1.554;2022-10-15T01:11:36;100116.44;;;17.69;100.00
46464;BME280;32161;48.148;-1.554;2022-10-15T01:14:26;100110.41;;;17.67;100.00
46464;BME280;32161;48.148;-1.554;2022-10-15T01:17:00;100113.53;;;17.61;100.00
46464;BME280;32161;48.148;-1.554;2022-10-15T01:20:19;100118.38;;;17.69;100.00
46464;BME280;32161;48.148;-1.554;2022-10-15T01:23:10;100105.50;;;17.64;100.00
46464;BME280;32161;48.148;-1.554;2022-10-15T01:25:47;100110.88;;;17.74;100.00
46464;BME280;32161;48.148;-1.554;2022-10-15T01:28:32;100116.44;;;17.69;100.00
46464;BME280;32161;48.148;-1.554;2022-10-15T01:31:16;100105.13;;;17.71;100.00
46464;BME280;32161;48.148;-1.554;2022-10-15T01:33:53;100107.16;;;17.89;100.00
46464;BME280;32161;48.148;-1.554;2022-10-15T01:36:31;100108.63;;;17.81;100.00
46464;BME280;32161;48.148;-1.554;2022-10-15T01:39:09;100092.97;;;18.01;100.00
46464;BME280;32161;48.148;-1.554;2022-10-15T01:41:42;100096.50;;;17.83;100.00
46464;BME280;32161;48.148;-1.554;2022-10-15T01:44:16;100103.28;;;17.66;100.00
46464;BME280;32161;48.148;-1.554;2022-10-15T01:46:48;100102.59;;;17.79;100.00
46464;BME280;32161;48.148;-1.554;2022-10-15T01:49:23;100106.34;;;17.89;100.00
46464;BME280;32161;48.148;-1.554;2022-10-15T01:51:54;100097.09;;;17.79;100.00
46464;BME280;32161;48.148;-1.554;2022-10-15T01:54:25;100097.09;;;17.79;100.00
46464;BME280;32161;48.148;-1.554;2022-10-15T01:56:54;100104.72;;;17.88;100.00
46464;BME280;32161;48.148;-1.554;2022-10-15T01:59:26;100090.34;;;17.91;100.00
46464;BME280;32161;48.148;-1.554;2022-10-15T02:01:56;100094.28;;;17.85;100.00
46464;BME280;32161;48.148;-1.554;2022-10-15T02:04:26;100100.75;;;17.70;100.00
46464;BME280;32161;48.148;-1.554;2022-10-15T02:07:00;100090.28;;;17.72;100.00
46464;BME280;32161;48.148;-1.554;2022-10-15T02:09:43;100085.38;;;17.69;100.00
46464;BME280;32161;48.148;-1.554;2022-10-15T02:12:33;100086.94;;;17.80;100.00
46464;BME280;32161;48.148;-1.554;2022-10-15T02:15:10;100081.34;;;17.61;100.00
46464;BME280;32161;48.148;-1.554;2022-10-15T02:17:54;100077.19;;;17.64;100.00
46464;BME280;32161;48.148;-1.554;2022-10-15T02:20:30;100077.97;;;17.69;100.00
46464;BME280;32161;48.148;-1.554;2022-10-15T02:23:04;100077.16;;;17.69;100.00
46464;BME280;32161;48.148;-1.554;2022-10-15T02:25:34;100078.97;;;17.78;100.00
46464;BME280;32161;48.148;-1.554;2022-10-15T02:28:06;100081.78;;;17.49;100.00
46464;BME280;32161;48.148;-1.554;2022-10-15T02:30:37;100079.88;;;17.45;100.00
46464;BME280;32161;48.148;-1.554;2022-10-15T02:33:12;100082.59;;;17.50;100.00
46464;BME280;32161;48.148;-1.554;2022-10-15T02:35:42;100076.03;;;17.46;100.00
46464;BME280;32161;48.148;-1.554;2022-10-15T02:38:15;100070.53;;;17.70;100.00
46464;BME280;32161;48.148;-1.554;2022-10-15T02:40:44;100075.78;;;17.66;100.00
46464;BME280;32161;48.148;-1.554;2022-10-15T02:43:15;100071.59;;;17.50;100.00
46464;BME280;32161;48.148;-1.554;2022-10-15T02:45:45;100074.84;;;17.52;100.00
46464;BME280;32161;48.148;-1.554;2022-10-15T02:48:14;100069.31;;;17.57;100.00
46464;BME280;32161;48.148;-1.554;2022-10-15T02:50:42;100074.66;;;17.67;100.00
46464;BME280;32161;48.148;-1.554;2022-10-15T02:53:10;100082.44;;;17.60;100.00
46464;BME280;32161;48.148;-1.554;2022-10-15T02:55:37;100082.59;;;17.50;100.00
46464;BME280;32161;48.148;-1.554;2022-10-15T02:58:05;100085.84;;;17.52;100.00
46464;BME280;32161;48.148;-1.554;2022-10-15T03:00:33;100079.88;;;17.45;100.00
46464;BME280;32161;48.148;-1.554;2022-10-15T03:03:00;100081.63;;;17.36;100.00
46464;BME280;32161;48.148;-1.554;2022-10-15T03:05:29;100087.91;;;17.41;100.00
46464;BME280;32161;48.148;-1.554;2022-10-15T03:07:58;100088.97;;;17.45;100.00
46464;BME280;32161;48.148;-1.554;2022-10-15T03:10:26;100083.22;;;17.42;100.00
46464;BME280;32161;48.148;-1.554;2022-10-15T03:12:54;100083.47;;;17.45;100.00
46464;BME280;32161;48.148;-1.554;2022-10-15T03:15:21;100083.41;;;17.50;100.00
46464;BME280;32161;48.148;-1.554;2022-10-15T03:17:49;100082.34;;;17.46;100.00
46464;BME280;32161;48.148;-1.554;2022-10-15T03:20:17;100086.31;;;17.35;100.00
46464;BME280;32161;48.148;-1.554;2022-10-15T03:22:46;100085.66;;;17.19;100.00
46464;BME280;32161;48.148;-1.554;2022-10-15T03:25:14;100096.34;;;17.21;100.00
46464;BME280;32161;48.148;-1.554;2022-10-15T03:27:42;100086.47;;;17.20;100.00
46464;BME280;32161;48.148;-1.554;2022-10-15T03:30:10;100090.81;;;17.26;100.00
46464;BME280;32161;48.148;-1.554;2022-10-15T03:32:38;100078.41;;;17.28;100.00
46464;BME280;32161;48.148;-1.554;2022-10-15T03:35:07;100085.44;;;17.16;100.00
46464;BME280;32161;48.148;-1.554;2022-10-15T03:37:35;100092.38;;;17.08;100.00
46464;BME280;32161;48.148;-1.554;2022-10-15T03:40:05;100094.56;;;17.06;100.00
46464;BME280;32161;48.148;-1.554;2022-10-15T03:42:33;100085.59;;;17.24;100.00
46464;BME280;32161;48.148;-1.554;2022-10-15T03:45:00;100089.16;;;17.25;100.00
46464;BME280;32161;48.148;-1.554;2022-10-15T03:47:28;100099.72;;;17.13;100.00
46464;BME280;32161;48.148;-1.554;2022-10-15T03:49:55;100100.94;;;17.30;100.00
46464;BME280;32161;48.148;-1.554;2022-10-15T03:52:23;100102.72;;;17.16;100.00
46464;BME280;32161;48.148;-1.554;2022-10-15T03:54:51;100103.41;;;17.03;100.00
46464;BME280;32161;48.148;-1.554;2022-10-15T03:57:19;100112.72;;;17.07;100.00
46464;BME280;32161;48.148;-1.554;2022-10-15T03:59:47;100104.97;;;17.09;100.00
46464;BME280;32161;48.148;-1.554;2022-10-15T04:02:15;100117.09;;;17.08;100.00
46464;BME280;32161;48.148;-1.554;2022-10-15T04:04:42;100114.72;;;16.96;100.00
46464;BME280;32161;48.148;-1.554;2022-10-15T04:07:10;100120.66;;;17.08;100.00
46464;BME280;32161;48.148;-1.554;2022-10-15T04:09:37;100132.19;;;17.05;100.00
46464;BME280;32161;48.148;-1.554;2022-10-15T04:12:05;100125.31;;;17.08;100.00
46464;BME280;32161;48.148;-1.554;2022-10-15T04:14:34;100131.06;;;17.12;100.00
46464;BME280;32161;48.148;-1.554;2022-10-15T04:17:02;100131.88;;;17.12;100.00
46464;BME280;32161;48.148;-1.554;2022-10-15T04:19:30;100128.75;;;16.90;100.00
46464;BME280;32161;48.148;-1.554;2022-10-15T04:21:57;100127.63;;;16.96;100.00
46464;BME280;32161;48.148;-1.554;2022-10-15T04:24:25;100129.50;;;17.00;100.00
46464;BME280;32161;48.148;-1.554;2022-10-15T04:26:53;100127.09;;;16.94;100.00
46464;BME280;32161;48.148;-1.554;2022-10-15T04:29:21;100131.75;;;16.93;100.00
46464;BME280;32161;48.148;-1.554;2022-10-15T04:31:50;100136.94;;;17.00;100.00
46464;BME280;32161;48.148;-1.554;2022-10-15T04:34:17;100137.78;;;16.95;100.00
46464;BME280;32161;48.148;-1.554;2022-10-15T04:36:45;100144.66;;;16.93;100.00
46464;BME280;32161;48.148;-1.554;2022-10-15T04:39:13;100144.44;;;16.89;100.00
46464;BME280;32161;48.148;-1.554;2022-10-15T04:41:40;100146.88;;;16.91;100.00
46464;BME280;32161;48.148;-1.554;2022-10-15T04:44:08;100150.97;;;16.93;100.00
46464;BME280;32161;48.148;-1.554;2022-10-15T04:46:36;100156.22;;;16.90;100.00
46464;BME280;32161;48.148;-1.554;2022-10-15T04:49:05;100152.91;;;16.93;100.00
46464;BME280;32161;48.148;-1.554;2022-10-15T04:51:32;100153.16;;;16.96;100.00
46464;BME280;32161;48.148;-1.554;2022-10-15T04:54:00;100154.59;;;16.89;100.00
46464;BME280;32161;48.148;-1.554;2022-10-15T04:56:28;100157.00;;;16.95;100.00
46464;BME280;32161;48.148;-1.554;2022-10-15T04:58:55;100161.47;;;16.86;100.00
46464;BME280;32161;48.148;-1.554;2022-10-15T05:01:23;100168.94;;;16.80;100.00
46464;BME280;32161;48.148;-1.554;2022-10-15T05:03:50;100174.97;;;16.77;100.00
46464;BME280;32161;48.148;-1.554;2022-10-15T05:06:21;100182.66;;;16.75;100.00
46464;BME280;32161;48.148;-1.554;2022-10-15T05:08:49;100188.16;;;16.70;100.00
46464;BME280;32161;48.148;-1.554;2022-10-15T05:11:19;100185.44;;;16.70;100.00
46464;BME280;32161;48.148;-1.554;2022-10-15T05:13:47;100185.97;;;16.77;100.00
46464;BME280;32161;48.148;-1.554;2022-10-15T05:16:17;100188.41;;;16.79;100.00
46464;BME280;32161;48.148;-1.554;2022-10-15T05:18:47;100197.75;;;16.78;100.00
46464;BME280;32161;48.148;-1.554;2022-10-15T05:21:18;100204.34;;;16.77;100.00
46464;BME280;32161;48.148;-1.554;2022-10-15T05:23:46;100207.38;;;16.75;100.00
46464;BME280;32161;48.148;-1.554;2022-10-15T05:26:17;100206.84;;;16.73;100.00
46464;BME280;32161;48.148;-1.554;2022-10-15T05:28:46;100205.19;;;16.72;100.00
46464;BME280;32161;48.148;-1.554;2022-10-15T05:31:17;100207.94;;;16.72;100.00
46464;BME280;32161;48.148;-1.554;2022-10-15T05:33:44;100223.56;;;16.72;100.00
46464;BME280;32161;48.148;-1.554;2022-10-15T05:36:15;100227.97;;;16.73;100.00
46464;BME280;32161;48.148;-1.554;2022-10-15T05:38:44;100227.69;;;16.74;100.00
46464;BME280;32161;48.148;-1.554;2022-10-15T05:41:15;100237.56;;;16.75;100.00
46464;BME280;32161;48.148;-1.554;2022-10-15T05:43:46;100237.88;;;16.69;100.00
46464;BME280;32161;48.148;-1.554;2022-10-15T05:46:14;100241.16;;;16.66;100.00
46464;BME280;32161;48.148;-1.554;2022-10-15T05:48:42;100251.03;;;16.67;100.00
46464;BME280;32161;48.148;-1.554;2022-10-15T05:51:12;100244.44;;;16.68;100.00
46464;BME280;32161;48.148;-1.554;2022-10-15T05:53:39;100246.38;;;16.67;100.00
46464;BME280;32161;48.148;-1.554;2022-10-15T05:56:09;100249.16;;;16.62;100.00
46464;BME280;32161;48.148;-1.554;2022-10-15T05:58:37;100248.59;;;16.60;100.00
46464;BME280;32161;48.148;-1.554;2022-10-15T06:01:07;100260.41;;;16.60;100.00
46464;BME280;32161;48.148;-1.554;2022-10-15T06:03:35;100253.25;;;16.59;100.00
46464;BME280;32161;48.148;-1.554;2022-10-15T06:06:03;100253.84;;;16.51;100.00
46464;BME280;32161;48.148;-1.554;2022-10-15T06:08:31;100250.59;;;16.49;100.00
46464;BME280;32161;48.148;-1.554;2022-10-15T06:11:02;100251.72;;;16.43;100.00
46464;BME280;32161;48.148;-1.554;2022-10-15T06:13:31;100255.81;;;16.46;100.00
46464;BME280;32161;48.148;-1.554;2022-10-15T06:15:58;100256.38;;;16.43;100.00
46464;BME280;32161;48.148;-1.554;2022-10-15T06:18:26;100259.69;;;16.34;100.00
46464;BME280;32161;48.148;-1.554;2022-10-15T06:20:54;100282.75;;;16.33;100.00
46464;BME280;32161;48.148;-1.554;2022-10-15T06:23:21;100291.47;;;16.46;100.00
46464;BME280;32161;48.148;-1.554;2022-10-15T06:25:50;100283.28;;;16.35;100.00
46464;BME280;32161;48.148;-1.554;2022-10-15T06:28:17;100292.06;;;16.32;100.00
46464;BME280;32161;48.148;-1.554;2022-10-15T06:30:47;100288.28;;;16.18;100.00
46464;BME280;32161;48.148;-1.554;2022-10-15T06:33:14;100284.47;;;16.09;100.00
46464;BME280;32161;48.148;-1.554;2022-10-15T06:35:42;100300.38;;;16.07;100.00
46464;BME280;32161;48.148;-1.554;2022-10-15T06:38:10;100306.66;;;16.02;100.00
46464;BME280;32161;48.148;-1.554;2022-10-15T06:40:38;100306.13;;;16.05;100.00
46464;BME280;32161;48.148;-1.554;2022-10-15T06:43:06;100314.63;;;16.04;100.00
46464;BME280;32161;48.148;-1.554;2022-10-15T06:45:39;100317.63;;;16.02;100.00
46464;BME280;32161;48.148;-1.554;2022-10-15T06:48:09;100318.22;;;15.99;100.00
46464;BME280;32161;48.148;-1.554;2022-10-15T06:50:38;100316.53;;;15.98;100.00
46464;BME280;32161;48.148;-1.554;2022-10-15T06:53:06;100321.22;;;15.98;100.00
46464;BME280;32161;48.148;-1.554;2022-10-15T06:55:34;100321.22;;;15.98;100.00
46464;BME280;32161;48.148;-1.554;2022-10-15T06:58:04;100318.50;;;15.93;100.00
46464;BME280;32161;48.148;-1.554;2022-10-15T07:00:32;100328.09;;;15.95;100.00
46464;BME280;32161;48.148;-1.554;2022-10-15T07:03:03;100331.91;;;15.99;100.00
46464;BME280;32161;48.148;-1.554;2022-10-15T07:05:33;100336.56;;;15.94;100.00
46464;BME280;32161;48.148;-1.554;2022-10-15T07:08:08;100337.41;;;15.89;100.00
46464;BME280;32161;48.148;-1.554;2022-10-15T07:10:38;100331.09;;;15.83;100.00
46464;BME280;32161;48.148;-1.554;2022-10-15T07:13:13;100343.72;;;15.84;100.00
46464;BME280;32161;48.148;-1.554;2022-10-15T07:15:44;100354.69;;;15.84;100.00
46464;BME280;32161;48.148;-1.554;2022-10-15T07:18:14;100363.97;;;15.83;100.00
46464;BME280;32161;48.148;-1.554;2022-10-15T07:20:43;100376.59;;;15.84;100.00
46464;BME280;32161;48.148;-1.554;2022-10-15T07:23:14;100369.47;;;15.83;100.00
46464;BME280;32161;48.148;-1.554;2022-10-15T07:25:42;100384.81;;;15.79;100.00
46464;BME280;32161;48.148;-1.554;2022-10-15T07:28:09;100385.09;;;15.78;100.00
46464;BME280;32161;48.148;-1.554;2022-10-15T07:30:37;100380.97;;;15.75;100.00
46464;BME280;32161;48.148;-1.554;2022-10-15T07:33:05;100392.22;;;15.69;100.00
46464;BME280;32161;48.148;-1.554;2022-10-15T07:35:32;100399.34;;;15.70;100.00
46464;BME280;32161;48.148;-1.554;2022-10-15T07:38:01;100399.06;;;15.71;100.00
46464;BME280;32161;48.148;-1.554;2022-10-15T07:40:30;100405.09;;;15.68;100.00
46464;BME280;32161;48.148;-1.554;2022-10-15T07:42:58;100403.47;;;15.72;100.00
46464;BME280;32161;48.148;-1.554;2022-10-15T07:45:27;100401.25;;;15.69;100.00
46464;BME280;32161;48.148;-1.554;2022-10-15T07:47:56;100408.09;;;15.67;100.00
46464;BME280;32161;48.148;-1.554;2022-10-15T07:50:37;100405.59;;;15.60;100.00
46464;BME280;32161;48.148;-1.554;2022-10-15T07:53:06;100408.63;;;15.58;100.00
46464;BME280;32161;48.148;-1.554;2022-10-15T07:55:43;100406.13;;;15.52;100.00
46464;BME280;32161;48.148;-1.554;2022-10-15T07:58:11;100408.88;;;15.52;100.00
46464;BME280;32161;48.148;-1.554;2022-10-15T08:00:39;100423.94;;;15.49;100.00
46464;BME280;32161;48.148;-1.554;2022-10-15T08:03:06;100419.00;;;15.46;100.00
46464;BME280;32161;48.148;-1.554;2022-10-15T08:05:34;100424.47;;;15.46;100.00
46464;BME280;32161;48.148;-1.554;2022-10-15T08:08:02;100425.31;;;15.47;100.00
46464;BME280;32161;48.148;-1.554;2022-10-15T08:10:31;100425.31;;;15.47;100.00
46464;BME280;32161;48.148;-1.554;2022-10-15T08:12:59;100424.19;;;15.48;100.00
46464;BME280;32161;48.148;-1.554;2022-10-15T08:15:27;100423.66;;;15.46;100.00
46464;BME280;32161;48.148;-1.554;2022-10-15T08:17:55;100434.63;;;15.46;100.00
46464;BME280;32161;48.148;-1.554;2022-10-15T08:20:22;100422.56;;;15.47;100.00
46464;BME280;32161;48.148;-1.554;2022-10-15T08:22:50;100428.56;;;15.44;100.00
46464;BME280;32161;48.148;-1.554;2022-10-15T08:25:17;100425.56;;;15.40;100.00
46464;BME280;32161;48.148;-1.554;2022-10-15T08:27:46;100430.78;;;15.47;100.00
46464;BME280;32161;48.148;-1.554;2022-10-15T08:30:14;100435.72;;;15.50;100.00
46464;BME280;32161;48.148;-1.554;2022-10-15T08:32:42;100437.66;;;15.54;100.00
46464;BME280;32161;48.148;-1.554;2022-10-15T08:35:09;100443.66;;;15.51;100.00
46464;BME280;32161;48.148;-1.554;2022-10-15T08:37:58;100450.00;;;15.62;100.00
46464;BME280;32161;48.148;-1.554;2022-10-15T08:40:38;100448.38;;;15.66;100.00
46464;BME280;32161;48.148;-1.554;2022-10-15T08:43:33;100456.63;;;15.76;100.00
46464;BME280;32161;48.148;-1.554;2022-10-15T08:46:05;100463.50;;;15.84;100.00
46464;BME280;32161;48.148;-1.554;2022-10-15T08:48:54;100451.97;;;15.87;100.00
46464;BME280;32161;48.148;-1.554;2022-10-15T08:51:40;100458.00;;;15.94;100.00
46464;BME280;32161;48.148;-1.554;2022-10-15T08:54:15;100449.50;;;15.85;100.00
46464;BME280;32161;48.148;-1.554;2022-10-15T08:56:59;100449.50;;;16.06;100.00
46464;BME280;32161;48.148;-1.554;2022-10-15T08:59:40;100444.31;;;16.15;100.00
46464;BME280;32161;48.148;-1.554;2022-10-15T09:02:17;100428.94;;;16.29;100.00
46464;BME280;32161;48.148;-1.554;2022-10-15T09:04:52;100428.66;;;16.25;99.50
46464;BME280;32161;48.148;-1.554;2022-10-15T09:07:30;100429.75;;;16.24;99.69
46464;BME280;32161;48.148;-1.554;2022-10-15T09:10:12;100442.38;;;16.35;98.07
46464;BME280;32161;48.148;-1.554;2022-10-15T09:12:49;100436.88;;;16.35;98.50
46464;BME280;32161;48.148;-1.554;2022-10-15T09:15:21;100448.91;;;16.60;97.51
46464;BME280;32161;48.148;-1.554;2022-10-15T09:17:51;100453.03;;;16.52;97.36
46464;BME280;32161;48.148;-1.554;2022-10-15T09:20:25;100448.94;;;16.45;97.76
46464;BME280;32161;48.148;-1.554;2022-10-15T09:22:54;100449.19;;;16.58;97.63
46464;BME280;32161;48.148;-1.554;2022-10-15T09:25:24;100448.13;;;16.49;98.17
46464;BME280;32161;48.148;-1.554;2022-10-15T09:27:56;100451.69;;;16.50;97.90
46464;BME280;32161;48.148;-1.554;2022-10-15T09:30:35;100458.81;;;16.51;98.20
46464;BME280;32161;48.148;-1.554;2022-10-15T09:33:12;100456.63;;;16.58;97.61
46464;BME280;32161;48.148;-1.554;2022-10-15T09:35:45;100462.34;;;16.67;97.34
46464;BME280;32161;48.148;-1.554;2022-10-15T09:38:27;100470.84;;;16.70;95.79
46464;BME280;32161;48.148;-1.554;2022-10-15T09:41:11;100477.44;;;16.69;96.87
46464;BME280;32161;48.148;-1.554;2022-10-15T09:43:44;100466.19;;;16.91;95.46
46464;BME280;32161;48.148;-1.554;2022-10-15T09:46:14;100458.50;;;16.83;95.05
46464;BME280;32161;48.148;-1.554;2022-10-15T09:48:46;100476.06;;;16.92;94.87
46464;BME280;32161;48.148;-1.554;2022-10-15T09:51:24;100475.75;;;16.94;94.50
46464;BME280;32161;48.148;-1.554;2022-10-15T09:54:02;100473.00;;;16.94;95.04
46464;BME280;32161;48.148;-1.554;2022-10-15T09:56:36;100471.91;;;16.95;95.86
46464;BME280;32161;48.148;-1.554;2022-10-15T09:59:04;100472.19;;;16.98;95.39
46464;BME280;32161;48.148;-1.554;2022-10-15T10:01:33;100461.72;;;17.11;94.81
46464;BME280;32161;48.148;-1.554;2022-10-15T10:04:15;100478.72;;;17.13;95.48
46464;BME280;32161;48.148;-1.554;2022-10-15T10:06:46;100477.91;;;17.12;94.38
46464;BME280;32161;48.148;-1.554;2022-10-15T10:09:19;100479.00;;;17.06;95.05
46464;BME280;32161;48.148;-1.554;2022-10-15T10:11:51;100475.13;;;17.17;94.89
46464;BME280;32161;48.148;-1.554;2022-10-15T10:14:27;100466.91;;;17.12;95.42
46464;BME280;32161;48.148;-1.554;2022-10-15T10:17:14;100471.56;;;17.17;95.82
46464;BME280;32161;48.148;-1.554;2022-10-15T10:19:43;100461.94;;;17.19;95.17
46464;BME280;32161;48.148;-1.554;2022-10-15T10:22:17;100464.09;;;17.27;94.05
46464;BME280;32161;48.148;-1.554;2022-10-15T10:24:45;100463.56;;;17.30;94.35
46464;BME280;32161;48.148;-1.554;2022-10-15T10:27:21;100453.63;;;17.35;93.25
46464;BME280;32161;48.148;-1.554;2022-10-15T10:29:54;100453.69;;;17.24;93.98
46464;BME280;32161;48.148;-1.554;2022-10-15T10:32:29;100460.00;;;17.30;94.78
46464;BME280;32161;48.148;-1.554;2022-10-15T10:34:58;100473.97;;;17.33;95.54
46464;BME280;32161;48.148;-1.554;2022-10-15T10:37:27;100472.28;;;17.43;93.84
46464;BME280;32161;48.148;-1.554;2022-10-15T10:39:58;100471.75;;;17.36;94.67
46464;BME280;32161;48.148;-1.554;2022-10-15T10:42:32;100464.94;;;17.28;96.30
46464;BME280;32161;48.148;-1.554;2022-10-15T10:45:21;100472.88;;;17.35;95.21
46464;BME280;32161;48.148;-1.554;2022-10-15T10:47:51;100467.13;;;17.31;95.03
46464;BME280;32161;48.148;-1.554;2022-10-15T10:50:31;100466.81;;;17.38;95.40
46464;BME280;32161;48.148;-1.554;2022-10-15T10:53:19;100460.91;;;17.65;93.26
46464;BME280;32161;48.148;-1.554;2022-10-15T10:55:50;100467.78;;;17.62;92.96
46464;BME280;32161;48.148;-1.554;2022-10-15T10:58:20;100464.00;;;17.53;93.78
46464;BME280;32161;48.148;-1.554;2022-10-15T11:00:51;100457.09;;;17.55;94.30
46464;BME280;32161;48.148;-1.554;2022-10-15T11:03:31;100462.88;;;17.54;93.60
46464;BME280;32161;48.148;-1.554;2022-10-15T11:06:24;100464.00;;;17.53;95.39
46464;BME280;32161;48.148;-1.554;2022-10-15T11:09:12;100455.09;;;17.66;93.45
46464;BME280;32161;48.148;-1.554;2022-10-15T11:11:51;100455.63;;;17.73;93.61
46464;BME280;32161;48.148;-1.554;2022-10-15T11:14:32;100450.66;;;17.75;92.65
46464;BME280;32161;48.148;-1.554;2022-10-15T11:17:19;100448.06;;;17.94;91.23
46464;BME280;32161;48.148;-1.554;2022-10-15T11:19:57;100452.47;;;17.95;92.14
46464;BME280;32161;48.148;-1.554;2022-10-15T11:22:55;100454.34;;;18.00;92.24
46464;BME280;32161;48.148;-1.554;2022-10-15T11:25:36;100463.47;;;17.95;92.60
46464;BME280;32161;48.148;-1.554;2022-10-15T11:28:26;100452.88;;;18.13;90.35
46464;BME280;32161;48.148;-1.554;2022-10-15T11:31:04;100450.31;;;18.21;90.59
46464;BME280;32161;48.148;-1.554;2022-10-15T11:33:55;100448.19;;;18.13;91.22
46464;BME280;32161;48.148;-1.554;2022-10-15T11:36:43;100448.94;;;18.24;91.57
46464;BME280;32161;48.148;-1.554;2022-10-15T11:39:37;100436.97;;;18.39;91.62
46464;BME280;32161;48.148;-1.554;2022-10-15T11:42:16;100447.34;;;18.47;90.86
46464;BME280;32161;48.148;-1.554;2022-10-15T11:48:02;100442.41;;;18.44;88.72
46464;BME280;32161;48.148;-1.554;2022-10-15T11:50:38;100441.13;;;18.60;87.47
46464;BME280;32161;48.148;-1.554;2022-10-15T11:53:31;100442.72;;;18.42;87.38
46464;BME280;32161;48.148;-1.554;2022-10-15T11:56:04;100429.75;;;18.43;87.94
46464;BME280;32161;48.148;-1.554;2022-10-15T11:58:42;100430.47;;;18.29;88.74
46464;BME280;32161;48.148;-1.554;2022-10-15T12:01:17;100424.25;;;18.43;89.69
46464;BME280;32161;48.148;-1.554;2022-10-15T12:03:52;100425.00;;;18.48;89.09
46464;BME280;32161;48.148;-1.554;2022-10-15T12:06:35;100423.53;;;18.61;87.07
46464;BME280;32161;48.148;-1.554;2022-10-15T12:09:24;100419.91;;;18.37;88.86
46464;BME280;32161;48.148;-1.554;2022-10-15T12:12:02;100411.94;;;18.35;91.04
46464;BME280;32161;48.148;-1.554;2022-10-15T12:14:40;100415.00;;;18.34;91.27
46464;BME280;32161;48.148;-1.554;2022-10-15T12:17:18;100413.94;;;18.29;92.17
46464;BME280;32161;48.148;-1.554;2022-10-15T12:19:52;100406.97;;;18.37;92.57
46464;BME280;32161;48.148;-1.554;2022-10-15T12:22:37;100408.31;;;18.40;89.57
46464;BME280;32161;48.148;-1.554;2022-10-15T12:25:42;100408.00;;;18.46;89.69
46464;BME280;32161;48.148;-1.554;2022-10-15T12:28:18;100408.91;;;18.37;90.25
46464;BME280;32161;48.148;-1.554;2022-10-15T12:30:56;100408.22;;;18.50;89.74
46464;BME280;32161;48.148;-1.554;2022-10-15T12:33:35;100399.66;;;18.51;89.05
46464;BME280;32161;48.148;-1.554;2022-10-15T12:36:07;100403.44;;;18.61;90.05
46464;BME280;32161;48.148;-1.554;2022-10-15T12:38:56;100398.06;;;18.74;90.18
46464;BME280;32161;48.148;-1.554;2022-10-15T12:41:38;100393.75;;;18.63;88.14
46464;BME280;32161;48.148;-1.554;2022-10-15T12:44:14;100397.84;;;18.71;86.85
46464;BME280;32161;48.148;-1.554;2022-10-15T12:46:46;100402.53;;;18.70;88.85
46464;BME280;32161;48.148;-1.554;2022-10-15T12:49:56;100386.94;;;18.85;87.68
46464;BME280;32161;48.148;-1.554;2022-10-15T12:52:59;100385.31;;;18.84;86.34
46464;BME280;32161;48.148;-1.554;2022-10-15T12:55:32;100370.31;;;18.95;84.47
46464;BME280;32161;48.148;-1.554;2022-10-15T12:58:05;100377.47;;;18.91;84.06
46464;BME280;32161;48.148;-1.554;2022-10-15T13:00:38;100380.84;;;18.88;85.30
46464;BME280;32161;48.148;-1.554;2022-10-15T13:03:33;100374.75;;;19.10;85.31
46464;BME280;32161;48.148;-1.554;2022-10-15T13:06:30;100374.28;;;19.26;82.08